createdAt,value
2023-05-16T00:00:08.542Z,100.00
2023-05-16T00:04:29.940Z,100.00
2023-05-16T00:08:31.541Z,100.00
2023-05-16T00:12:33.334Z,100.00
2023-05-16T00:22:17.008Z,100.00
2023-05-16T00:26:18.852Z,100.00
2023-05-16T00:30:20.273Z,100.00
2023-05-16T00:34:27.060Z,100.00
2023-05-16T00:38:28.498Z,100.00
2023-05-16T00:42:30.327Z,100.00
2023-05-16T00:46:32.444Z,100.00
2023-05-16T00:50:36.574Z,100.00
2023-05-16T00:54:37.914Z,100.00
2023-05-16T00:58:39.456Z,100.00
2023-05-16T01:02:42.638Z,100.00
2023-05-16T01:06:45.440Z,100.00
2023-05-16T01:11:14.921Z,100.00
2023-05-16T01:16:00.637Z,100.00
2023-05-16T01:20:20.408Z,100.00
2023-05-16T01:25:12.732Z,100.00
2023-05-16T01:29:15.857Z,100.00
2023-05-16T01:33:17.266Z,100.00
2023-05-16T01:37:21.380Z,100.00
2023-05-16T01:41:53.673Z,100.00
2023-05-16T01:46:02.002Z,100.00
2023-05-16T01:50:10.550Z,100.00
2023-05-16T01:54:15.089Z,100.00
2023-05-16T01:58:41.741Z,100.00
2023-05-16T02:02:43.233Z,100.00
2023-05-16T02:06:44.962Z,100.00
2023-05-16T02:10:59.004Z,100.00
2023-05-16T02:15:00.535Z,100.00
2023-05-16T02:19:02.027Z,100.00
2023-05-16T02:23:03.466Z,100.00
2023-05-16T02:27:05.589Z,100.00
2023-05-16T02:31:07.085Z,100.00
2023-05-16T02:35:08.639Z,100.00
2023-05-16T02:39:13.263Z,100.00
2023-05-16T02:43:15.035Z,100.00
2023-05-16T02:47:16.412Z,100.00
2023-05-16T02:51:20.544Z,100.00
2023-05-16T02:55:35.867Z,100.00
2023-05-16T02:59:39.959Z,100.00
2023-05-16T03:03:42.673Z,100.00
2023-05-16T03:07:44.056Z,100.00
2023-05-16T03:11:45.819Z,100.00
2023-05-16T03:15:47.158Z,100.00
2023-05-16T03:19:48.557Z,100.00
2023-05-16T03:24:41.071Z,100.00
2023-05-16T03:28:42.411Z,100.00
2023-05-16T03:32:55.415Z,100.00
2023-05-16T03:36:56.928Z,100.00
2023-05-16T03:55:39.602Z,100.00
2023-05-16T04:04:33.168Z,100.00
2023-05-16T04:08:40.690Z,100.00
2023-05-16T04:12:42.078Z,100.00
2023-05-16T04:16:43.501Z,100.00
2023-05-16T04:20:46.982Z,100.00
2023-05-16T04:24:48.696Z,99.09
2023-05-16T04:28:50.191Z,89.54
2023-05-16T04:33:03.151Z,87.45
2023-05-16T04:37:04.956Z,85.23
2023-05-16T04:41:08.736Z,84.99
2023-05-16T04:45:11.415Z,84.61
2023-05-16T04:49:39.043Z,82.91
2023-05-16T04:53:40.497Z,83.41
2023-05-16T04:57:41.823Z,83.87
2023-05-16T05:01:43.233Z,83.55
2023-05-16T05:05:45.595Z,82.13
2023-05-16T05:09:47.169Z,81.18
2023-05-16T05:13:50.175Z,80.34
2023-05-16T05:17:53.258Z,79.64
2023-05-16T05:21:54.840Z,79.27
2023-05-16T05:57:16.255Z,87.42
2023-05-16T06:01:20.992Z,88.06
2023-05-16T06:05:23.425Z,91.47
2023-05-16T06:09:25.499Z,90.46
2023-05-16T06:13:31.228Z,90.49
2023-05-16T06:17:33.185Z,91.47
2023-05-16T06:21:35.203Z,89.08
2023-05-16T06:25:37.186Z,89.21
2023-05-16T06:29:39.315Z,91.33
2023-05-16T06:33:41.312Z,92.10
2023-05-16T06:37:43.308Z,93.16
2023-05-16T06:41:45.480Z,95.84
2023-05-16T06:45:47.528Z,97.62
2023-05-16T06:49:50.255Z,97.68
2023-05-16T06:53:52.450Z,97.78
2023-05-16T07:02:38.609Z,100.00
2023-05-16T07:06:43.796Z,100.00
2023-05-16T07:10:46.735Z,100.00
2023-05-16T07:14:49.680Z,100.00
2023-05-16T07:18:52.542Z,100.00
2023-05-16T07:22:57.521Z,100.00
2023-05-16T07:27:00.185Z,100.00
2023-05-16T07:42:10.487Z,100.00
2023-05-16T07:46:12.738Z,100.00
2023-05-16T07:50:14.801Z,100.00
2023-05-16T07:54:16.175Z,100.00
2023-05-16T07:58:17.877Z,100.00
2023-05-16T08:02:19.371Z,100.00
2023-05-16T08:06:21.345Z,100.00
2023-05-16T08:10:23.927Z,100.00
2023-05-16T08:14:25.654Z,100.00
2023-05-16T08:18:32.427Z,100.00
2023-05-16T08:22:34.089Z,100.00
2023-05-16T08:26:36.912Z,100.00
2023-05-16T08:30:40.430Z,100.00
2023-05-16T08:34:44.492Z,99.87
2023-05-16T08:39:14.481Z,98.97
2023-05-16T08:43:16.132Z,97.94
2023-05-16T08:47:44.145Z,99.06
2023-05-16T08:51:48.950Z,98.92
2023-05-16T08:55:52.937Z,99.98
2023-05-16T08:59:59.332Z,99.94
2023-05-16T09:04:06.076Z,100.00
2023-05-16T09:08:08.377Z,100.00
2023-05-16T09:12:10.758Z,100.00
2023-05-16T09:17:20.603Z,100.00
2023-05-16T09:21:33.136Z,100.00
2023-05-16T09:25:39.879Z,100.00
2023-05-16T09:29:54.099Z,100.00
2023-05-16T09:33:56.328Z,100.00
2023-05-16T09:37:58.074Z,100.00
2023-05-16T09:42:06.423Z,100.00
2023-05-16T09:46:12.466Z,100.00
2023-05-16T09:50:17.249Z,100.00
2023-05-16T09:54:33.495Z,100.00
2023-05-16T09:58:42.287Z,100.00
2023-05-16T10:02:45.603Z,100.00
2023-05-16T10:06:54.193Z,100.00
2023-05-16T10:10:58.046Z,100.00
2023-05-16T10:15:04.402Z,100.00
2023-05-16T10:19:06.080Z,100.00
2023-05-16T10:23:12.756Z,100.00
2023-05-16T10:27:16.130Z,100.00
2023-05-16T10:31:24.448Z,100.00
2023-05-16T10:35:27.426Z,100.00
2023-05-16T10:39:30.530Z,100.00
2023-05-16T10:43:34.241Z,100.00
2023-05-16T10:47:35.999Z,100.00
2023-05-16T10:51:40.561Z,100.00
2023-05-16T10:56:09.721Z,100.00
2023-05-16T11:00:22.704Z,100.00
2023-05-16T11:04:51.280Z,100.00
2023-05-16T11:09:22.250Z,100.00
2023-05-16T11:13:24.860Z,100.00
2023-05-16T11:17:31.071Z,100.00
2023-05-16T11:22:08.750Z,100.00
2023-05-16T11:26:10.736Z,100.00
2023-05-16T11:30:18.820Z,100.00
2023-05-16T11:34:21.008Z,100.00
2023-05-16T11:38:35.590Z,100.00
2023-05-16T11:42:43.877Z,100.00
2023-05-16T11:46:47.314Z,100.00
2023-05-16T11:50:50.051Z,100.00
2023-05-16T11:54:54.708Z,100.00
2023-05-16T11:58:56.260Z,100.00
2023-05-16T12:03:06.590Z,100.00
2023-05-16T12:22:26.001Z,100.00
2023-05-16T12:26:30.834Z,100.00
2023-05-16T12:30:32.506Z,100.00
2023-05-16T12:34:36.137Z,100.00
2023-05-16T12:39:32.627Z,100.00
2023-05-16T12:43:36.410Z,100.00
2023-05-16T12:47:38.102Z,100.00
2023-05-16T12:51:40.796Z,100.00
2023-05-16T12:55:45.753Z,100.00
2023-05-16T12:59:47.401Z,100.00
2023-05-16T13:03:49.036Z,100.00
2023-05-16T13:07:51.036Z,100.00
2023-05-16T13:11:53.184Z,100.00
2023-05-16T13:15:55.105Z,100.00
2023-05-16T13:19:56.697Z,100.00
2023-05-16T13:23:58.840Z,100.00
2023-05-16T13:28:05.080Z,100.00
2023-05-16T13:32:07.268Z,100.00
2023-05-16T13:36:09.802Z,100.00
2023-05-16T13:40:11.768Z,100.00
2023-05-16T13:44:17.782Z,100.00
2023-05-16T13:48:19.401Z,100.00
2023-05-16T13:52:23.980Z,100.00
2023-05-16T13:56:25.468Z,100.00
2023-05-16T14:00:43.639Z,100.00
2023-05-16T14:05:18.293Z,100.00
2023-05-16T14:09:24.355Z,100.00
2023-05-16T14:13:28.979Z,100.00
2023-05-16T14:17:30.489Z,100.00
2023-05-16T14:21:31.989Z,100.00
2023-05-16T14:25:33.550Z,100.00
2023-05-16T14:29:35.065Z,100.00
2023-05-16T14:33:36.598Z,100.00
2023-05-16T14:37:38.549Z,100.00
2023-05-16T14:41:40.214Z,100.00
2023-05-16T14:45:47.867Z,100.00
2023-05-16T14:49:49.584Z,100.00
2023-05-16T14:53:50.977Z,100.00
2023-05-16T14:57:59.641Z,100.00
2023-05-16T15:02:32.227Z,100.00
2023-05-16T15:06:38.476Z,100.00
2023-05-16T15:10:39.965Z,100.00
2023-05-16T15:14:42.899Z,100.00
2023-05-16T15:18:50.799Z,100.00
2023-05-16T15:22:52.598Z,100.00
2023-05-16T15:26:58.687Z,100.00
2023-05-16T15:31:00.181Z,100.00
2023-05-16T15:35:04.830Z,100.00
2023-05-16T15:39:06.265Z,100.00
2023-05-16T15:43:07.878Z,100.00
2023-05-16T15:47:10.833Z,100.00
2023-05-16T15:51:12.745Z,100.00
2023-05-16T15:55:16.473Z,100.00
2023-05-16T15:59:17.952Z,100.00
2023-05-16T16:03:20.741Z,100.00
2023-05-16T16:07:22.671Z,100.00
2023-05-16T16:11:28.701Z,100.00
2023-05-16T16:15:33.124Z,100.00
2023-05-16T16:19:35.041Z,100.00
2023-05-16T16:23:37.527Z,100.00
2023-05-16T16:27:38.961Z,100.00
2023-05-16T16:31:40.514Z,100.00
2023-05-16T16:35:42.951Z,100.00
2023-05-16T16:39:45.316Z,100.00
2023-05-16T16:44:01.016Z,100.00
2023-05-16T16:48:02.448Z,100.00
2023-05-16T16:52:04.539Z,100.00
2023-05-16T16:56:13.340Z,100.00
2023-05-16T17:00:15.613Z,100.00
2023-05-16T17:04:45.702Z,100.00
2023-05-16T17:08:47.309Z,100.00
2023-05-16T17:44:49.612Z,100.00
2023-05-16T17:48:51.484Z,100.00
2023-05-16T17:52:54.768Z,100.00
2023-05-16T17:56:58.296Z,100.00
2023-05-16T18:01:27.309Z,100.00
2023-05-16T18:05:29.037Z,100.00
2023-05-16T18:09:33.146Z,100.00
2023-05-16T18:13:34.513Z,100.00
2023-05-16T18:17:36.082Z,100.00
2023-05-16T18:21:40.339Z,100.00
2023-05-16T18:25:46.849Z,100.00
2023-05-16T18:29:48.273Z,100.00
2023-05-16T18:33:50.328Z,100.00
2023-05-16T18:37:51.727Z,100.00
2023-05-16T18:41:53.150Z,100.00
2023-05-16T18:46:05.866Z,100.00
2023-05-16T18:50:09.457Z,100.00
2023-05-16T18:54:11.302Z,100.00
2023-05-16T18:58:12.839Z,100.00
2023-05-16T19:02:14.614Z,100.00
2023-05-16T19:06:19.219Z,100.00
2023-05-16T19:10:21.651Z,100.00
2023-05-16T19:14:23.302Z,100.00
2023-05-16T19:18:24.762Z,100.00
2023-05-16T19:22:26.838Z,100.00
2023-05-16T19:26:29.396Z,100.00
2023-05-16T19:30:31.129Z,100.00
2023-05-16T19:34:35.646Z,100.00
2023-05-16T19:38:37.170Z,100.00
2023-05-16T19:42:57.599Z,100.00
2023-05-16T19:46:59.230Z,100.00
2023-05-16T19:51:01.499Z,100.00
2023-05-16T19:55:06.110Z,100.00
2023-05-16T19:59:07.879Z,100.00
2023-05-16T20:03:11.032Z,100.00
2023-05-16T20:07:12.583Z,100.00
2023-05-16T20:11:15.331Z,100.00
2023-05-16T20:15:18.636Z,100.00
2023-05-16T20:19:25.805Z,100.00
2023-05-16T20:23:27.671Z,100.00
2023-05-16T20:27:31.724Z,100.00
2023-05-16T20:31:46.406Z,100.00
2023-05-16T20:35:47.806Z,100.00
2023-05-16T20:39:49.495Z,100.00
2023-05-16T20:43:51.125Z,100.00
2023-05-16T20:47:52.668Z,100.00
2023-05-16T20:51:58.185Z,100.00
2023-05-16T20:55:59.610Z,100.00
2023-05-16T21:00:01.684Z,100.00
2023-05-16T21:04:03.812Z,100.00
2023-05-16T21:08:05.813Z,100.00
2023-05-16T21:12:07.837Z,100.00
2023-05-16T21:16:12.946Z,100.00
2023-05-16T21:20:15.695Z,100.00
2023-05-16T21:24:17.124Z,100.00
2023-05-16T21:28:18.552Z,100.00
2023-05-16T21:32:20.198Z,100.00
2023-05-16T21:36:54.010Z,100.00
2023-05-16T21:40:57.129Z,100.00
2023-05-16T21:44:59.683Z,100.00
2023-05-16T21:49:01.378Z,100.00
2023-05-16T21:53:03.425Z,100.00
2023-05-16T21:57:05.897Z,100.00
2023-05-16T22:01:10.745Z,100.00
2023-05-16T22:05:28.240Z,100.00
2023-05-16T22:09:30.150Z,100.00
2023-05-16T22:13:31.663Z,100.00
2023-05-16T22:17:33.168Z,100.00
2023-05-16T22:21:35.424Z,100.00
2023-05-16T22:25:36.856Z,100.00
2023-05-16T22:29:39.208Z,100.00
2023-05-16T22:33:41.149Z,100.00
2023-05-16T22:37:42.857Z,100.00
2023-05-16T22:41:46.014Z,100.00
2023-05-16T22:46:03.036Z,100.00
2023-05-16T22:50:06.035Z,100.00
2023-05-16T22:54:07.407Z,100.00
2023-05-16T22:58:36.555Z,100.00
2023-05-16T23:02:39.091Z,100.00
2023-05-16T23:06:40.735Z,100.00
2023-05-16T23:10:42.141Z,100.00
2023-05-16T23:14:52.726Z,100.00
2023-05-16T23:18:54.281Z,100.00
2023-05-16T23:22:56.410Z,100.00
2023-05-16T23:26:58.159Z,100.00
2023-05-16T23:30:59.523Z,100.00
2023-05-16T23:35:01.754Z,100.00
2023-05-16T23:39:03.417Z,100.00
2023-05-16T23:43:05.026Z,100.00
2023-05-16T23:47:07.234Z,100.00
2023-05-16T23:51:08.667Z,100.00
2023-05-16T23:55:10.536Z,100.00
2023-05-16T23:59:13.029Z,100.00
